SBBRSBGO

Guest
Details From SBBR - Brasilia Presidente Juscelino Kubitsch
To SBGO - Santo Genoveva
Flight Number -
Tags generated
Created
Modified
Stats Distance 88 nm / 163 km
Max Altitude 3,200 ft / 975 m
Waypoints 3
Social Downloads 1
Likes 0
Share VATSIM

Download

Looking for another format? Having issues loading an existing format? Contact us
Advertisement - Login to hide

Notes

Basic altitude profile: - Ascent Rate: 2500ft/min - Ascent Speed: 250kts - Cruise Altitude: 35000ft - Cruise Speed: 420kts - Descent Rate: 1500ft/min - Descent Speed: 250kts

Route

SBBR GOMAL SBGO

ID Type Via Altitude Latitude Longitude Leg Dist Tot Dist Heading (true) Name
O SBBR APT - 0 ft / 0 m -15.87110˚ -47.91863˚ - 0 nm - Brasilia Presidente Juscelino Kubitsch
GOMAL FIX - 3,200 ft / 975 m -16.49500˚ -48.99767˚ 72 nm 72 nm 239° / 239° -
O SBGO APT - 0 ft / 0 m -16.63203˚ -49.22069˚ 15 nm 87 nm 237° / 237° Santo Genoveva

Altitude Profile

Advertisement - Login to hide

SBBR

Details ICAO SBBR (BSB)
Name Brasilia Presidente Juscelino Kubitsch
Region Brazil
Timezone America/Sao_Paulo (UTC-2.0)
Stats Elevation 3,479 ft / 1,060 m (AMSL)
Location -15.871101° -47.918626°
Runways 2
Magnetic Variation 21.549° W

METAR

SBBR 120400Z 34003KT 9999 SCT004 SCT040 OVC100 18/17 Q1014

Decode

TAF

TAF SBBR 112200Z 1200/1224 33008KT 9999 BKN016 TN19/1207Z TX25/1216Z PROB30 1200/1202 7000 TSRA BKN012 FEW035CB PROB30 1208/1212 BKN008 BECMG 1214/1215 BKN020 BECMG 1216/1217 23007KT BKN020 FEW035TCU PROB30 TEMPO 1219/1222 TSRA SCT020 FEW035CB RMK PDA

Decode

Departure Runways

ID Width Length Bearing (true) Bearing (mag) Surface Threshold Offset Overrun Length
11L 148 ft / 45 m 10,493 ft / 3,198 m 86.35° 107.90° Asphalt 0 ft / 0 m 200 ft / 61 m
11R 148 ft / 45 m 10,839 ft / 3,304 m 86.00° 107.55° Asphalt 2,635 ft / 803 m 200 ft / 61 m
29L 148 ft / 45 m 10,839 ft / 3,304 m 265.99° 287.54° Asphalt 0 ft / 0 m 200 ft / 61 m
29R 148 ft / 45 m 10,493 ft / 3,198 m 266.34° 287.89° Asphalt 0 ft / 0 m 200 ft / 61 m

SBGO

Details ICAO SBGO (GYN)
Name Santo Genoveva
Region Brazil
Timezone America/Sao_Paulo (UTC-2.0)
Stats Elevation 2,450 ft / 747 m (AMSL)
Location -16.632032° -49.220686°
Runways 1
Magnetic Variation 20.988° W

METAR

SBGO 120400Z 34004KT 9999 FEW007 SCT100 20/19 Q1013

Decode

TAF

TAF SBGO 111600Z 1118/1218 33007KT 8000 SCT016 FEW035TCU TX24/1118Z TN21/1208Z PROB30 1118/1123 4000 TSRA BKN015 FEW035CB BECMG 1204/1206 BKN010 PROB30 1210/1212 BKN007 BECMG 1214/1215 9999 BKN016 BECMG 1216/1217 29007KT BKN020 FEW035TCU RMK PDA

Decode

Destination Runways

ID Width Length Bearing (true) Bearing (mag) Surface Threshold Offset Overrun Length
14 148 ft / 45 m 8,208 ft / 2,502 m 120.42° 141.41° Asphalt 0 ft / 0 m 0 ft / 0 m
32 148 ft / 45 m 8,208 ft / 2,502 m 300.41° 321.40° Asphalt 980 ft / 299 m 0 ft / 0 m

Popular Alternatives